sensor_id;sensor_type;location;lat;lon;timestamp;P1;durP1;ratioP1;P2;durP2;ratioP2
24407;SDS011;12542;50.924;4.516;2023-02-22T00:00:41;201.00;;;26.77;;
24407;SDS011;12542;50.924;4.516;2023-02-22T00:03:12;187.95;;;28.33;;
24407;SDS011;12542;50.924;4.516;2023-02-22T00:05:52;137.55;;;23.75;;
24407;SDS011;12542;50.924;4.516;2023-02-22T00:08:22;187.30;;;26.42;;
24407;SDS011;12542;50.924;4.516;2023-02-22T00:10:49;151.80;;;25.00;;
24407;SDS011;12542;50.924;4.516;2023-02-22T00:13:15;129.80;;;26.33;;
24407;SDS011;12542;50.924;4.516;2023-02-22T00:15:42;136.48;;;25.73;;
24407;SDS011;12542;50.924;4.516;2023-02-22T00:18:09;117.28;;;22.80;;
24407;SDS011;12542;50.924;4.516;2023-02-22T00:20:38;114.18;;;23.67;;
24407;SDS011;12542;50.924;4.516;2023-02-22T00:23:05;96.68;;;23.58;;
24407;SDS011;12542;50.924;4.516;2023-02-22T00:25:32;122.30;;;22.45;;
24407;SDS011;12542;50.924;4.516;2023-02-22T00:27:59;118.57;;;21.60;;
24407;SDS011;12542;50.924;4.516;2023-02-22T00:30:28;115.85;;;25.58;;
24407;SDS011;12542;50.924;4.516;2023-02-22T00:32:56;116.07;;;23.30;;
24407;SDS011;12542;50.924;4.516;2023-02-22T00:35:26;113.82;;;23.38;;
24407;SDS011;12542;50.924;4.516;2023-02-22T00:37:58;113.45;;;24.27;;
24407;SDS011;12542;50.924;4.516;2023-02-22T00:40:29;109.43;;;21.88;;
24407;SDS011;12542;50.924;4.516;2023-02-22T00:42:58;101.75;;;20.60;;
24407;SDS011;12542;50.924;4.516;2023-02-22T00:45:26;135.15;;;21.50;;
24407;SDS011;12542;50.924;4.516;2023-02-22T00:47:53;169.23;;;22.42;;
24407;SDS011;12542;50.924;4.516;2023-02-22T00:50:20;133.13;;;22.15;;
24407;SDS011;12542;50.924;4.516;2023-02-22T00:52:47;116.90;;;24.45;;
24407;SDS011;12542;50.924;4.516;2023-02-22T00:55:18;124.20;;;21.58;;
24407;SDS011;12542;50.924;4.516;2023-02-22T00:57:46;160.55;;;22.83;;
24407;SDS011;12542;50.924;4.516;2023-02-22T01:00:16;183.60;;;23.00;;
24407;SDS011;12542;50.924;4.516;2023-02-22T01:02:44;130.15;;;21.38;;
24407;SDS011;12542;50.924;4.516;2023-02-22T01:05:14;150.30;;;20.50;;
24407;SDS011;12542;50.924;4.516;2023-02-22T01:07:40;123.53;;;22.13;;
24407;SDS011;12542;50.924;4.516;2023-02-22T01:10:07;110.57;;;20.60;;
24407;SDS011;12542;50.924;4.516;2023-02-22T01:12:34;125.03;;;22.92;;
24407;SDS011;12542;50.924;4.516;2023-02-22T01:15:00;141.13;;;22.23;;
24407;SDS011;12542;50.924;4.516;2023-02-22T01:17:34;171.25;;;24.15;;
24407;SDS011;12542;50.924;4.516;2023-02-22T01:20:00;176.00;;;23.08;;
24407;SDS011;12542;50.924;4.516;2023-02-22T01:22:28;254.05;;;25.08;;
24407;SDS011;12542;50.924;4.516;2023-02-22T01:24:54;124.82;;;18.60;;
24407;SDS011;12542;50.924;4.516;2023-02-22T01:27:20;149.82;;;25.08;;
24407;SDS011;12542;50.924;4.516;2023-02-22T01:29:47;142.75;;;21.13;;
24407;SDS011;12542;50.924;4.516;2023-02-22T01:32:14;116.22;;;20.42;;
24407;SDS011;12542;50.924;4.516;2023-02-22T01:34:40;196.10;;;24.70;;
24407;SDS011;12542;50.924;4.516;2023-02-22T01:37:06;162.32;;;22.23;;
24407;SDS011;12542;50.924;4.516;2023-02-22T01:39:32;148.73;;;22.33;;
24407;SDS011;12542;50.924;4.516;2023-02-22T01:42:00;210.27;;;24.05;;
24407;SDS011;12542;50.924;4.516;2023-02-22T01:44:27;133.00;;;22.15;;
24407;SDS011;12542;50.924;4.516;2023-02-22T01:47:02;100.15;;;19.60;;
24407;SDS011;12542;50.924;4.516;2023-02-22T01:49:35;143.73;;;21.75;;
24407;SDS011;12542;50.924;4.516;2023-02-22T01:52:13;153.52;;;24.27;;
24407;SDS011;12542;50.924;4.516;2023-02-22T01:54:42;188.02;;;22.70;;
24407;SDS011;12542;50.924;4.516;2023-02-22T01:57:14;143.20;;;21.08;;
24407;SDS011;12542;50.924;4.516;2023-02-22T01:59:47;136.52;;;21.10;;
24407;SDS011;12542;50.924;4.516;2023-02-22T02:02:18;178.38;;;23.63;;
24407;SDS011;12542;50.924;4.516;2023-02-22T02:04:46;228.52;;;24.75;;
24407;SDS011;12542;50.924;4.516;2023-02-22T02:07:13;119.78;;;20.35;;
24407;SDS011;12542;50.924;4.516;2023-02-22T02:09:58;137.27;;;21.92;;
24407;SDS011;12542;50.924;4.516;2023-02-22T02:12:26;89.20;;;18.13;;
24407;SDS011;12542;50.924;4.516;2023-02-22T02:15:15;104.60;;;20.52;;
24407;SDS011;12542;50.924;4.516;2023-02-22T02:17:45;107.82;;;19.90;;
24407;SDS011;12542;50.924;4.516;2023-02-22T02:20:22;80.55;;;17.55;;
24407;SDS011;12542;50.924;4.516;2023-02-22T02:34:14;97.15;;;19.52;;
24407;SDS011;12542;50.924;4.516;2023-02-22T02:36:50;87.53;;;19.77;;
24407;SDS011;12542;50.924;4.516;2023-02-22T02:42:02;109.53;;;20.10;;
24407;SDS011;12542;50.924;4.516;2023-02-22T02:44:40;114.15;;;19.70;;
24407;SDS011;12542;50.924;4.516;2023-02-22T02:47:10;96.60;;;21.23;;
24407;SDS011;12542;50.924;4.516;2023-02-22T02:49:58;78.70;;;18.63;;
24407;SDS011;12542;50.924;4.516;2023-02-22T02:52:28;93.32;;;19.63;;
24407;SDS011;12542;50.924;4.516;2023-02-22T02:54:57;68.03;;;18.60;;
24407;SDS011;12542;50.924;4.516;2023-02-22T02:57:24;49.80;;;15.82;;
24407;SDS011;12542;50.924;4.516;2023-02-22T02:59:51;51.50;;;16.13;;
24407;SDS011;12542;50.924;4.516;2023-02-22T03:05:29;49.15;;;16.60;;
24407;SDS011;12542;50.924;4.516;2023-02-22T03:11:37;51.80;;;16.67;;
24407;SDS011;12542;50.924;4.516;2023-02-22T03:17:03;64.68;;;16.92;;
24407;SDS011;12542;50.924;4.516;2023-02-22T03:19:41;73.28;;;15.77;;
24407;SDS011;12542;50.924;4.516;2023-02-22T03:25:10;70.97;;;18.02;;
24407;SDS011;12542;50.924;4.516;2023-02-22T03:27:59;55.55;;;15.40;;
24407;SDS011;12542;50.924;4.516;2023-02-22T03:30:44;65.60;;;15.80;;
24407;SDS011;12542;50.924;4.516;2023-02-22T03:33:17;58.03;;;16.13;;
24407;SDS011;12542;50.924;4.516;2023-02-22T03:36:13;36.72;;;16.08;;
24407;SDS011;12542;50.924;4.516;2023-02-22T03:38:49;43.80;;;16.92;;
24407;SDS011;12542;50.924;4.516;2023-02-22T03:41:20;51.17;;;15.98;;
24407;SDS011;12542;50.924;4.516;2023-02-22T03:43:53;34.42;;;15.57;;
24407;SDS011;12542;50.924;4.516;2023-02-22T03:46:27;45.33;;;15.48;;
24407;SDS011;12542;50.924;4.516;2023-02-22T03:48:58;35.17;;;15.15;;
24407;SDS011;12542;50.924;4.516;2023-02-22T03:51:34;44.60;;;16.25;;
24407;SDS011;12542;50.924;4.516;2023-02-22T03:54:01;31.88;;;14.52;;
24407;SDS011;12542;50.924;4.516;2023-02-22T03:56:29;32.85;;;16.60;;
24407;SDS011;12542;50.924;4.516;2023-02-22T03:59:07;34.15;;;14.43;;
24407;SDS011;12542;50.924;4.516;2023-02-22T04:01:34;41.10;;;15.10;;
24407;SDS011;12542;50.924;4.516;2023-02-22T04:04:00;39.33;;;15.52;;
24407;SDS011;12542;50.924;4.516;2023-02-22T04:06:27;36.60;;;14.85;;
24407;SDS011;12542;50.924;4.516;2023-02-22T04:08:52;44.55;;;16.23;;
24407;SDS011;12542;50.924;4.516;2023-02-22T04:11:18;43.72;;;14.95;;
24407;SDS011;12542;50.924;4.516;2023-02-22T04:13:46;36.85;;;15.52;;
24407;SDS011;12542;50.924;4.516;2023-02-22T04:16:12;41.35;;;16.45;;
24407;SDS011;12542;50.924;4.516;2023-02-22T04:18:40;36.80;;;16.08;;
24407;SDS011;12542;50.924;4.516;2023-02-22T04:21:06;30.40;;;16.15;;
24407;SDS011;12542;50.924;4.516;2023-02-22T04:23:33;28.88;;;14.40;;
24407;SDS011;12542;50.924;4.516;2023-02-22T04:26:08;31.27;;;15.13;;
24407;SDS011;12542;50.924;4.516;2023-02-22T04:29:31;29.75;;;14.93;;
24407;SDS011;12542;50.924;4.516;2023-02-22T04:31:57;35.00;;;15.25;;
24407;SDS011;12542;50.924;4.516;2023-02-22T04:34:22;31.50;;;14.90;;
24407;SDS011;12542;50.924;4.516;2023-02-22T04:36:48;33.45;;;16.23;;
24407;SDS011;12542;50.924;4.516;2023-02-22T04:39:15;33.47;;;15.43;;
24407;SDS011;12542;50.924;4.516;2023-02-22T04:41:40;31.98;;;15.13;;
24407;SDS011;12542;50.924;4.516;2023-02-22T04:44:06;29.20;;;14.15;;
24407;SDS011;12542;50.924;4.516;2023-02-22T04:46:32;32.33;;;15.35;;
24407;SDS011;12542;50.924;4.516;2023-02-22T04:48:58;31.02;;;14.07;;
24407;SDS011;12542;50.924;4.516;2023-02-22T04:51:24;30.23;;;14.52;;
24407;SDS011;12542;50.924;4.516;2023-02-22T04:53:49;29.50;;;15.80;;
24407;SDS011;12542;50.924;4.516;2023-02-22T04:56:16;30.88;;;14.73;;
24407;SDS011;12542;50.924;4.516;2023-02-22T04:58:42;29.95;;;14.80;;
24407;SDS011;12542;50.924;4.516;2023-02-22T05:01:08;30.90;;;14.88;;
24407;SDS011;12542;50.924;4.516;2023-02-22T05:03:36;31.85;;;15.65;;
24407;SDS011;12542;50.924;4.516;2023-02-22T05:06:02;30.13;;;14.43;;
24407;SDS011;12542;50.924;4.516;2023-02-22T05:08:31;30.25;;;15.50;;
24407;SDS011;12542;50.924;4.516;2023-02-22T05:10:57;32.15;;;14.88;;
24407;SDS011;12542;50.924;4.516;2023-02-22T05:13:25;26.15;;;15.40;;
24407;SDS011;12542;50.924;4.516;2023-02-22T05:15:51;31.23;;;14.80;;
24407;SDS011;12542;50.924;4.516;2023-02-22T05:18:17;31.92;;;15.35;;
24407;SDS011;12542;50.924;4.516;2023-02-22T05:20:45;27.83;;;15.55;;
24407;SDS011;12542;50.924;4.516;2023-02-22T05:23:13;29.33;;;15.00;;
24407;SDS011;12542;50.924;4.516;2023-02-22T05:25:39;28.13;;;15.18;;
24407;SDS011;12542;50.924;4.516;2023-02-22T05:28:10;32.47;;;15.63;;
24407;SDS011;12542;50.924;4.516;2023-02-22T05:30:37;29.27;;;15.32;;
24407;SDS011;12542;50.924;4.516;2023-02-22T05:33:06;34.83;;;15.88;;
24407;SDS011;12542;50.924;4.516;2023-02-22T05:35:32;25.25;;;14.52;;
24407;SDS011;12542;50.924;4.516;2023-02-22T05:37:58;31.70;;;15.55;;
24407;SDS011;12542;50.924;4.516;2023-02-22T05:40:27;28.38;;;15.13;;
24407;SDS011;12542;50.924;4.516;2023-02-22T05:42:53;29.02;;;14.52;;
24407;SDS011;12542;50.924;4.516;2023-02-22T05:45:21;31.08;;;15.50;;
24407;SDS011;12542;50.924;4.516;2023-02-22T05:47:50;28.42;;;15.05;;
24407;SDS011;12542;50.924;4.516;2023-02-22T05:50:17;24.67;;;13.45;;
24407;SDS011;12542;50.924;4.516;2023-02-22T05:52:45;29.73;;;14.60;;
24407;SDS011;12542;50.924;4.516;2023-02-22T05:55:13;32.30;;;15.77;;
24407;SDS011;12542;50.924;4.516;2023-02-22T05:57:40;27.63;;;14.68;;
24407;SDS011;12542;50.924;4.516;2023-02-22T06:00:06;36.83;;;16.10;;
24407;SDS011;12542;50.924;4.516;2023-02-22T06:02:33;29.00;;;14.73;;
24407;SDS011;12542;50.924;4.516;2023-02-22T06:04:59;29.38;;;14.23;;
24407;SDS011;12542;50.924;4.516;2023-02-22T06:07:24;31.20;;;15.63;;
24407;SDS011;12542;50.924;4.516;2023-02-22T06:09:51;33.50;;;14.68;;
24407;SDS011;12542;50.924;4.516;2023-02-22T06:12:17;31.95;;;15.57;;
24407;SDS011;12542;50.924;4.516;2023-02-22T06:14:43;29.67;;;15.63;;
24407;SDS011;12542;50.924;4.516;2023-02-22T06:17:12;31.95;;;16.45;;
24407;SDS011;12542;50.924;4.516;2023-02-22T06:19:39;29.65;;;16.35;;
24407;SDS011;12542;50.924;4.516;2023-02-22T06:22:05;27.90;;;15.38;;
24407;SDS011;12542;50.924;4.516;2023-02-22T06:24:32;28.38;;;15.02;;
24407;SDS011;12542;50.924;4.516;2023-02-22T06:26:59;26.40;;;14.27;;
24407;SDS011;12542;50.924;4.516;2023-02-22T06:29:27;27.40;;;13.85;;
24407;SDS011;12542;50.924;4.516;2023-02-22T06:31:53;32.35;;;16.58;;
24407;SDS011;12542;50.924;4.516;2023-02-22T06:34:20;36.55;;;20.38;;
24407;SDS011;12542;50.924;4.516;2023-02-22T06:36:46;30.52;;;15.57;;
24407;SDS011;12542;50.924;4.516;2023-02-22T06:39:12;22.58;;;12.38;;
24407;SDS011;12542;50.924;4.516;2023-02-22T06:41:42;24.00;;;12.30;;
24407;SDS011;12542;50.924;4.516;2023-02-22T06:44:09;21.75;;;12.20;;
24407;SDS011;12542;50.924;4.516;2023-02-22T06:46:36;24.88;;;13.65;;
24407;SDS011;12542;50.924;4.516;2023-02-22T06:49:02;35.03;;;16.58;;
24407;SDS011;12542;50.924;4.516;2023-02-22T06:51:28;25.50;;;13.77;;
24407;SDS011;12542;50.924;4.516;2023-02-22T06:53:54;24.25;;;13.68;;
24407;SDS011;12542;50.924;4.516;2023-02-22T06:56:20;25.92;;;14.40;;
24407;SDS011;12542;50.924;4.516;2023-02-22T06:58:46;21.00;;;11.57;;
24407;SDS011;12542;50.924;4.516;2023-02-22T07:01:13;18.33;;;11.35;;
24407;SDS011;12542;50.924;4.516;2023-02-22T07:03:39;21.85;;;10.95;;
24407;SDS011;12542;50.924;4.516;2023-02-22T07:06:08;17.17;;;9.95;;
24407;SDS011;12542;50.924;4.516;2023-02-22T07:08:34;19.00;;;10.73;;
24407;SDS011;12542;50.924;4.516;2023-02-22T07:11:01;18.08;;;10.80;;
24407;SDS011;12542;50.924;4.516;2023-02-22T07:13:27;26.92;;;11.80;;
24407;SDS011;12542;50.924;4.516;2023-02-22T07:15:53;18.73;;;9.80;;
24407;SDS011;12542;50.924;4.516;2023-02-22T07:18:19;16.83;;;10.02;;
24407;SDS011;12542;50.924;4.516;2023-02-22T07:20:45;19.10;;;10.73;;
24407;SDS011;12542;50.924;4.516;2023-02-22T07:23:14;17.42;;;9.88;;
24407;SDS011;12542;50.924;4.516;2023-02-22T07:25:40;19.77;;;9.90;;
24407;SDS011;12542;50.924;4.516;2023-02-22T07:28:06;16.20;;;10.25;;
24407;SDS011;12542;50.924;4.516;2023-02-22T07:30:34;17.25;;;9.25;;
24407;SDS011;12542;50.924;4.516;2023-02-22T07:33:02;18.45;;;9.95;;
24407;SDS011;12542;50.924;4.516;2023-02-22T07:35:33;18.13;;;10.57;;
24407;SDS011;12542;50.924;4.516;2023-02-22T07:38:01;17.20;;;10.75;;
24407;SDS011;12542;50.924;4.516;2023-02-22T07:40:27;18.63;;;11.48;;
24407;SDS011;12542;50.924;4.516;2023-02-22T07:42:58;17.83;;;11.00;;
24407;SDS011;12542;50.924;4.516;2023-02-22T07:45:27;18.45;;;10.07;;
24407;SDS011;12542;50.924;4.516;2023-02-22T07:47:53;17.58;;;9.65;;
24407;SDS011;12542;50.924;4.516;2023-02-22T07:50:19;15.05;;;9.77;;
24407;SDS011;12542;50.924;4.516;2023-02-22T07:52:47;16.02;;;8.38;;
24407;SDS011;12542;50.924;4.516;2023-02-22T07:55:15;21.70;;;9.88;;
24407;SDS011;12542;50.924;4.516;2023-02-22T07:57:44;15.70;;;8.73;;
24407;SDS011;12542;50.924;4.516;2023-02-22T08:00:11;18.17;;;10.05;;
24407;SDS011;12542;50.924;4.516;2023-02-22T08:02:42;18.00;;;9.20;;
24407;SDS011;12542;50.924;4.516;2023-02-22T08:05:09;18.65;;;9.55;;
24407;SDS011;12542;50.924;4.516;2023-02-22T08:07:38;15.68;;;8.98;;
24407;SDS011;12542;50.924;4.516;2023-02-22T08:10:04;16.00;;;9.27;;
24407;SDS011;12542;50.924;4.516;2023-02-22T08:12:32;16.98;;;9.75;;
24407;SDS011;12542;50.924;4.516;2023-02-22T08:14:59;14.77;;;8.73;;
24407;SDS011;12542;50.924;4.516;2023-02-22T08:17:26;15.52;;;8.93;;
24407;SDS011;12542;50.924;4.516;2023-02-22T08:19:52;20.95;;;9.23;;
24407;SDS011;12542;50.924;4.516;2023-02-22T08:22:18;21.33;;;9.88;;
24407;SDS011;12542;50.924;4.516;2023-02-22T08:24:44;21.33;;;10.93;;
24407;SDS011;12542;50.924;4.516;2023-02-22T08:27:10;17.30;;;9.55;;
24407;SDS011;12542;50.924;4.516;2023-02-22T08:29:35;18.45;;;9.30;;
24407;SDS011;12542;50.924;4.516;2023-02-22T08:32:01;21.33;;;9.23;;
24407;SDS011;12542;50.924;4.516;2023-02-22T08:34:27;15.77;;;8.70;;
24407;SDS011;12542;50.924;4.516;2023-02-22T08:36:53;19.02;;;9.30;;
24407;SDS011;12542;50.924;4.516;2023-02-22T08:39:19;18.95;;;9.18;;
24407;SDS011;12542;50.924;4.516;2023-02-22T08:41:46;19.15;;;8.68;;
24407;SDS011;12542;50.924;4.516;2023-02-22T08:44:11;16.95;;;9.35;;
24407;SDS011;12542;50.924;4.516;2023-02-22T08:46:37;17.45;;;8.88;;
24407;SDS011;12542;50.924;4.516;2023-02-22T08:49:03;16.65;;;8.70;;
24407;SDS011;12542;50.924;4.516;2023-02-22T08:51:35;18.20;;;9.65;;
24407;SDS011;12542;50.924;4.516;2023-02-22T08:54:01;18.13;;;9.88;;
24407;SDS011;12542;50.924;4.516;2023-02-22T08:56:28;14.75;;;9.60;;
24407;SDS011;12542;50.924;4.516;2023-02-22T08:58:54;18.40;;;8.27;;
24407;SDS011;12542;50.924;4.516;2023-02-22T09:01:21;18.33;;;9.05;;
24407;SDS011;12542;50.924;4.516;2023-02-22T09:03:48;19.08;;;8.45;;
24407;SDS011;12542;50.924;4.516;2023-02-22T09:06:15;18.10;;;10.25;;
24407;SDS011;12542;50.924;4.516;2023-02-22T09:08:41;21.08;;;10.73;;
24407;SDS011;12542;50.924;4.516;2023-02-22T09:11:07;16.73;;;9.23;;
24407;SDS011;12542;50.924;4.516;2023-02-22T09:13:33;20.33;;;9.77;;
24407;SDS011;12542;50.924;4.516;2023-02-22T09:15:58;20.38;;;10.80;;
24407;SDS011;12542;50.924;4.516;2023-02-22T09:18:25;19.02;;;10.13;;
24407;SDS011;12542;50.924;4.516;2023-02-22T09:20:52;20.02;;;10.10;;
24407;SDS011;12542;50.924;4.516;2023-02-22T09:23:18;17.83;;;10.27;;
24407;SDS011;12542;50.924;4.516;2023-02-22T09:25:45;20.60;;;11.32;;
24407;SDS011;12542;50.924;4.516;2023-02-22T09:28:11;20.88;;;10.75;;
24407;SDS011;12542;50.924;4.516;2023-02-22T09:30:37;22.20;;;10.38;;
24407;SDS011;12542;50.924;4.516;2023-02-22T09:33:13;20.05;;;10.75;;
24407;SDS011;12542;50.924;4.516;2023-02-22T09:35:41;17.92;;;10.75;;
24407;SDS011;12542;50.924;4.516;2023-02-22T09:38:15;22.25;;;10.77;;
24407;SDS011;12542;50.924;4.516;2023-02-22T09:40:47;23.02;;;11.60;;
24407;SDS011;12542;50.924;4.516;2023-02-22T09:46:16;24.08;;;11.32;;
24407;SDS011;12542;50.924;4.516;2023-02-22T09:49:01;22.30;;;11.07;;
24407;SDS011;12542;50.924;4.516;2023-02-22T09:51:54;18.77;;;10.82;;
24407;SDS011;12542;50.924;4.516;2023-02-22T09:54:25;26.58;;;11.25;;
24407;SDS011;12542;50.924;4.516;2023-02-22T09:56:59;18.42;;;10.25;;
24407;SDS011;12542;50.924;4.516;2023-02-22T09:59:33;22.83;;;11.95;;
24407;SDS011;12542;50.924;4.516;2023-02-22T10:04:54;16.98;;;10.55;;
24407;SDS011;12542;50.924;4.516;2023-02-22T10:07:33;16.95;;;10.32;;
24407;SDS011;12542;50.924;4.516;2023-02-22T10:10:05;19.17;;;10.57;;
24407;SDS011;12542;50.924;4.516;2023-02-22T10:15:39;18.65;;;11.57;;
24407;SDS011;12542;50.924;4.516;2023-02-22T10:26:44;20.85;;;11.98;;
24407;SDS011;12542;50.924;4.516;2023-02-22T10:31:57;26.02;;;12.90;;
24407;SDS011;12542;50.924;4.516;2023-02-22T10:34:26;23.73;;;12.90;;
24407;SDS011;12542;50.924;4.516;2023-02-22T10:36:58;23.65;;;14.18;;
24407;SDS011;12542;50.924;4.516;2023-02-22T10:39:33;26.05;;;14.55;;
24407;SDS011;12542;50.924;4.516;2023-02-22T10:42:02;26.10;;;14.15;;
24407;SDS011;12542;50.924;4.516;2023-02-22T10:44:31;23.05;;;12.82;;
24407;SDS011;12542;50.924;4.516;2023-02-22T10:47:01;26.05;;;12.70;;
24407;SDS011;12542;50.924;4.516;2023-02-22T10:49:33;22.85;;;11.73;;
24407;SDS011;12542;50.924;4.516;2023-02-22T10:52:03;22.20;;;12.95;;
24407;SDS011;12542;50.924;4.516;2023-02-22T10:54:38;20.25;;;12.73;;
24407;SDS011;12542;50.924;4.516;2023-02-22T10:57:06;21.63;;;13.45;;
24407;SDS011;12542;50.924;4.516;2023-02-22T10:59:34;22.50;;;13.60;;
24407;SDS011;12542;50.924;4.516;2023-02-22T11:04:44;29.08;;;14.88;;
24407;SDS011;12542;50.924;4.516;2023-02-22T11:07:23;26.88;;;15.10;;
24407;SDS011;12542;50.924;4.516;2023-02-22T11:09:56;24.17;;;14.82;;
24407;SDS011;12542;50.924;4.516;2023-02-22T11:14:57;28.02;;;16.20;;
24407;SDS011;12542;50.924;4.516;2023-02-22T11:17:41;28.03;;;15.87;;
24407;SDS011;12542;50.924;4.516;2023-02-22T11:22:54;21.90;;;14.48;;
24407;SDS011;12542;50.924;4.516;2023-02-22T11:25:26;26.23;;;15.32;;
24407;SDS011;12542;50.924;4.516;2023-02-22T11:30:42;28.48;;;16.27;;
24407;SDS011;12542;50.924;4.516;2023-02-22T11:38:16;30.58;;;16.83;;
24407;SDS011;12542;50.924;4.516;2023-02-22T11:40:42;26.27;;;17.30;;
24407;SDS011;12542;50.924;4.516;2023-02-22T11:43:14;30.70;;;17.10;;
24407;SDS011;12542;50.924;4.516;2023-02-22T11:45:58;27.98;;;16.65;;
24407;SDS011;12542;50.924;4.516;2023-02-22T11:48:36;33.55;;;18.42;;
24407;SDS011;12542;50.924;4.516;2023-02-22T11:51:11;27.92;;;17.08;;
24407;SDS011;12542;50.924;4.516;2023-02-22T11:56:18;29.08;;;16.85;;
24407;SDS011;12542;50.924;4.516;2023-02-22T12:07:37;35.05;;;19.38;;
24407;SDS011;12542;50.924;4.516;2023-02-22T12:18:50;36.67;;;21.00;;
24407;SDS011;12542;50.924;4.516;2023-02-22T12:21:23;31.00;;;19.50;;
24407;SDS011;12542;50.924;4.516;2023-02-22T12:24:07;35.92;;;21.80;;
24407;SDS011;12542;50.924;4.516;2023-02-22T12:26:41;32.55;;;21.38;;
24407;SDS011;12542;50.924;4.516;2023-02-22T12:45:07;38.38;;;22.30;;
24407;SDS011;12542;50.924;4.516;2023-02-22T12:47:52;36.35;;;21.83;;
24407;SDS011;12542;50.924;4.516;2023-02-22T12:50:27;32.47;;;21.02;;
24407;SDS011;12542;50.924;4.516;2023-02-22T12:53:03;34.78;;;21.65;;
24407;SDS011;12542;50.924;4.516;2023-02-22T12:56:11;32.60;;;23.38;;
24407;SDS011;12542;50.924;4.516;2023-02-22T12:59:28;35.88;;;23.42;;
24407;SDS011;12542;50.924;4.516;2023-02-22T13:01:45;35.35;;;23.42;;
24407;SDS011;12542;50.924;4.516;2023-02-22T13:04:27;33.20;;;22.60;;
24407;SDS011;12542;50.924;4.516;2023-02-22T13:07:02;35.70;;;23.88;;
24407;SDS011;12542;50.924;4.516;2023-02-22T13:12:23;40.33;;;23.48;;
24407;SDS011;12542;50.924;4.516;2023-02-22T13:15:26;39.42;;;22.73;;
24407;SDS011;12542;50.924;4.516;2023-02-22T13:20:56;29.48;;;21.55;;
24407;SDS011;12542;50.924;4.516;2023-02-22T13:26:24;33.92;;;22.20;;
24407;SDS011;12542;50.924;4.516;2023-02-22T13:32:05;32.90;;;22.00;;
24407;SDS011;12542;50.924;4.516;2023-02-22T13:51:02;31.30;;;21.45;;
24407;SDS011;12542;50.924;4.516;2023-02-22T13:53:49;37.00;;;22.67;;
24407;SDS011;12542;50.924;4.516;2023-02-22T13:56:44;35.45;;;22.58;;
24407;SDS011;12542;50.924;4.516;2023-02-22T13:59:45;37.08;;;23.38;;
24407;SDS011;12542;50.924;4.516;2023-02-22T14:02:04;40.15;;;24.88;;
24407;SDS011;12542;50.924;4.516;2023-02-22T14:09:46;40.97;;;24.83;;
24407;SDS011;12542;50.924;4.516;2023-02-22T14:20:17;39.42;;;24.25;;
24407;SDS011;12542;50.924;4.516;2023-02-22T14:22:49;43.05;;;25.02;;
24407;SDS011;12542;50.924;4.516;2023-02-22T14:28:52;39.65;;;24.60;;
24407;SDS011;12542;50.924;4.516;2023-02-22T14:31:22;40.85;;;25.88;;
24407;SDS011;12542;50.924;4.516;2023-02-22T14:39:11;42.22;;;23.98;;
24407;SDS011;12542;50.924;4.516;2023-02-22T14:41:41;38.70;;;25.17;;
24407;SDS011;12542;50.924;4.516;2023-02-22T14:44:13;40.40;;;24.80;;
24407;SDS011;12542;50.924;4.516;2023-02-22T14:46:45;37.63;;;24.52;;
24407;SDS011;12542;50.924;4.516;2023-02-22T14:49:14;42.00;;;27.35;;
24407;SDS011;12542;50.924;4.516;2023-02-22T14:51:43;44.15;;;26.45;;
24407;SDS011;12542;50.924;4.516;2023-02-22T14:54:31;49.65;;;26.80;;
24407;SDS011;12542;50.924;4.516;2023-02-22T14:57:28;40.67;;;25.00;;
24407;SDS011;12542;50.924;4.516;2023-02-22T15:00:21;45.15;;;26.55;;
24407;SDS011;12542;50.924;4.516;2023-02-22T15:02:59;45.08;;;27.60;;
24407;SDS011;12542;50.924;4.516;2023-02-22T15:05:26;45.67;;;28.77;;
24407;SDS011;12542;50.924;4.516;2023-02-22T15:07:59;45.00;;;28.20;;
24407;SDS011;12542;50.924;4.516;2023-02-22T15:10:33;48.30;;;27.95;;
24407;SDS011;12542;50.924;4.516;2023-02-22T15:13:18;45.63;;;27.95;;
24407;SDS011;12542;50.924;4.516;2023-02-22T15:15:55;45.03;;;28.00;;
24407;SDS011;12542;50.924;4.516;2023-02-22T15:18:28;44.65;;;27.45;;
24407;SDS011;12542;50.924;4.516;2023-02-22T15:21:11;44.40;;;28.77;;
24407;SDS011;12542;50.924;4.516;2023-02-22T15:23:44;46.20;;;29.00;;
24407;SDS011;12542;50.924;4.516;2023-02-22T15:26:40;48.78;;;29.58;;
24407;SDS011;12542;50.924;4.516;2023-02-22T15:29:13;46.58;;;29.42;;
24407;SDS011;12542;50.924;4.516;2023-02-22T15:31:39;44.95;;;28.65;;
24407;SDS011;12542;50.924;4.516;2023-02-22T15:36:42;49.55;;;29.17;;
24407;SDS011;12542;50.924;4.516;2023-02-22T15:42:12;49.47;;;30.83;;
24407;SDS011;12542;50.924;4.516;2023-02-22T15:44:45;47.58;;;27.98;;
24407;SDS011;12542;50.924;4.516;2023-02-22T15:47:22;44.83;;;29.33;;
24407;SDS011;12542;50.924;4.516;2023-02-22T15:52:54;53.90;;;29.33;;
24407;SDS011;12542;50.924;4.516;2023-02-22T15:55:33;46.15;;;29.20;;
24407;SDS011;12542;50.924;4.516;2023-02-22T15:58:37;48.83;;;29.08;;
24407;SDS011;12542;50.924;4.516;2023-02-22T16:00:59;49.15;;;27.30;;
24407;SDS011;12542;50.924;4.516;2023-02-22T16:03:34;50.78;;;29.17;;
24407;SDS011;12542;50.924;4.516;2023-02-22T16:06:08;49.88;;;28.63;;
24407;SDS011;12542;50.924;4.516;2023-02-22T16:08:43;47.63;;;27.40;;
24407;SDS011;12542;50.924;4.516;2023-02-22T16:11:21;49.00;;;28.58;;
24407;SDS011;12542;50.924;4.516;2023-02-22T16:14:03;56.75;;;29.70;;
24407;SDS011;12542;50.924;4.516;2023-02-22T16:16:31;54.40;;;28.55;;
24407;SDS011;12542;50.924;4.516;2023-02-22T16:22:03;52.50;;;28.35;;
24407;SDS011;12542;50.924;4.516;2023-02-22T16:24:37;54.33;;;31.00;;
24407;SDS011;12542;50.924;4.516;2023-02-22T16:27:25;52.85;;;28.15;;
24407;SDS011;12542;50.924;4.516;2023-02-22T16:30:00;47.72;;;27.73;;
24407;SDS011;12542;50.924;4.516;2023-02-22T16:32:53;51.83;;;28.08;;
24407;SDS011;12542;50.924;4.516;2023-02-22T16:35:22;53.42;;;27.98;;
24407;SDS011;12542;50.924;4.516;2023-02-22T16:38:10;50.17;;;26.63;;
24407;SDS011;12542;50.924;4.516;2023-02-22T16:40:41;49.40;;;27.15;;
24407;SDS011;12542;50.924;4.516;2023-02-22T16:43:16;46.95;;;25.98;;
24407;SDS011;12542;50.924;4.516;2023-02-22T16:45:44;47.50;;;25.50;;
24407;SDS011;12542;50.924;4.516;2023-02-22T16:48:23;50.60;;;27.17;;
24407;SDS011;12542;50.924;4.516;2023-02-22T16:50:50;49.08;;;27.92;;
24407;SDS011;12542;50.924;4.516;2023-02-22T16:53:18;53.78;;;27.98;;
24407;SDS011;12542;50.924;4.516;2023-02-22T16:55:47;54.00;;;28.20;;
24407;SDS011;12542;50.924;4.516;2023-02-22T16:58:15;57.20;;;27.60;;
24407;SDS011;12542;50.924;4.516;2023-02-22T17:00:43;52.55;;;28.38;;
24407;SDS011;12542;50.924;4.516;2023-02-22T17:03:17;59.80;;;28.90;;
24407;SDS011;12542;50.924;4.516;2023-02-22T17:05:44;56.17;;;28.90;;
24407;SDS011;12542;50.924;4.516;2023-02-22T17:08:10;55.55;;;28.50;;
24407;SDS011;12542;50.924;4.516;2023-02-22T17:10:38;52.00;;;27.75;;
24407;SDS011;12542;50.924;4.516;2023-02-22T17:13:05;51.38;;;27.67;;
24407;SDS011;12542;50.924;4.516;2023-02-22T17:15:32;58.45;;;29.17;;
24407;SDS011;12542;50.924;4.516;2023-02-22T17:17:59;53.92;;;29.35;;
24407;SDS011;12542;50.924;4.516;2023-02-22T17:20:30;62.08;;;29.92;;
24407;SDS011;12542;50.924;4.516;2023-02-22T17:25:28;60.45;;;30.67;;